sensor_id;sensor_type;location;lat;lon;timestamp;P1;durP1;ratioP1;P2;durP2;ratioP2
11203;SDS011;5659;49.408;11.116;2023-08-06T00:01:51;6.60;;;4.80;;
11203;SDS011;5659;49.408;11.116;2023-08-06T00:04:17;7.93;;;4.22;;
11203;SDS011;5659;49.408;11.116;2023-08-06T00:06:44;9.25;;;4.53;;
11203;SDS011;5659;49.408;11.116;2023-08-06T00:09:10;6.90;;;4.25;;
11203;SDS011;5659;49.408;11.116;2023-08-06T00:11:36;5.68;;;4.28;;
11203;SDS011;5659;49.408;11.116;2023-08-06T00:14:02;8.00;;;4.97;;
11203;SDS011;5659;49.408;11.116;2023-08-06T00:16:28;7.97;;;4.90;;
11203;SDS011;5659;49.408;11.116;2023-08-06T00:18:54;5.90;;;4.70;;
11203;SDS011;5659;49.408;11.116;2023-08-06T00:21:20;6.93;;;5.57;;
11203;SDS011;5659;49.408;11.116;2023-08-06T00:23:46;5.75;;;5.07;;
11203;SDS011;5659;49.408;11.116;2023-08-06T00:26:12;7.07;;;5.13;;
11203;SDS011;5659;49.408;11.116;2023-08-06T00:28:37;7.35;;;5.07;;
11203;SDS011;5659;49.408;11.116;2023-08-06T00:31:03;6.32;;;5.25;;
11203;SDS011;5659;49.408;11.116;2023-08-06T00:33:29;7.28;;;5.43;;
11203;SDS011;5659;49.408;11.116;2023-08-06T00:35:55;7.57;;;5.78;;
11203;SDS011;5659;49.408;11.116;2023-08-06T00:38:21;8.95;;;5.82;;
11203;SDS011;5659;49.408;11.116;2023-08-06T00:40:47;5.93;;;5.32;;
11203;SDS011;5659;49.408;11.116;2023-08-06T00:43:13;5.72;;;5.10;;
11203;SDS011;5659;49.408;11.116;2023-08-06T00:45:39;5.88;;;5.38;;
11203;SDS011;5659;49.408;11.116;2023-08-06T00:48:05;9.25;;;5.57;;
11203;SDS011;5659;49.408;11.116;2023-08-06T00:50:32;6.53;;;5.38;;
11203;SDS011;5659;49.408;11.116;2023-08-06T00:52:58;7.20;;;5.03;;
11203;SDS011;5659;49.408;11.116;2023-08-06T00:55:25;8.23;;;5.80;;
11203;SDS011;5659;49.408;11.116;2023-08-06T00:57:51;6.72;;;5.57;;
11203;SDS011;5659;49.408;11.116;2023-08-06T01:00:18;7.95;;;5.97;;
11203;SDS011;5659;49.408;11.116;2023-08-06T01:02:44;8.40;;;6.22;;
11203;SDS011;5659;49.408;11.116;2023-08-06T01:05:10;9.70;;;6.63;;
11203;SDS011;5659;49.408;11.116;2023-08-06T01:15:40;6.85;;;5.97;;
11203;SDS011;5659;49.408;11.116;2023-08-06T01:18:07;7.70;;;6.28;;
11203;SDS011;5659;49.408;11.116;2023-08-06T01:20:33;9.68;;;6.25;;
11203;SDS011;5659;49.408;11.116;2023-08-06T01:22:59;7.47;;;5.95;;
11203;SDS011;5659;49.408;11.116;2023-08-06T01:25:34;9.80;;;6.65;;
11203;SDS011;5659;49.408;11.116;2023-08-06T01:28:11;6.97;;;6.20;;
11203;SDS011;5659;49.408;11.116;2023-08-06T01:30:41;9.00;;;6.65;;
11203;SDS011;5659;49.408;11.116;2023-08-06T01:33:09;9.85;;;6.30;;
11203;SDS011;5659;49.408;11.116;2023-08-06T01:35:35;9.00;;;6.28;;
11203;SDS011;5659;49.408;11.116;2023-08-06T01:38:03;9.07;;;6.30;;
11203;SDS011;5659;49.408;11.116;2023-08-06T01:40:29;10.20;;;6.32;;
11203;SDS011;5659;49.408;11.116;2023-08-06T01:42:55;8.02;;;6.10;;
11203;SDS011;5659;49.408;11.116;2023-08-06T01:45:21;6.57;;;5.95;;
11203;SDS011;5659;49.408;11.116;2023-08-06T01:47:47;8.27;;;6.47;;
11203;SDS011;5659;49.408;11.116;2023-08-06T01:50:13;8.10;;;6.20;;
11203;SDS011;5659;49.408;11.116;2023-08-06T01:52:39;10.07;;;5.57;;
11203;SDS011;5659;49.408;11.116;2023-08-06T01:55:05;7.18;;;5.75;;
11203;SDS011;5659;49.408;11.116;2023-08-06T01:57:31;8.63;;;5.72;;
11203;SDS011;5659;49.408;11.116;2023-08-06T01:59:57;7.95;;;5.95;;
11203;SDS011;5659;49.408;11.116;2023-08-06T02:02:23;8.93;;;5.90;;
11203;SDS011;5659;49.408;11.116;2023-08-06T02:04:49;8.40;;;5.60;;
11203;SDS011;5659;49.408;11.116;2023-08-06T02:07:15;6.38;;;5.78;;
11203;SDS011;5659;49.408;11.116;2023-08-06T02:09:41;6.65;;;5.70;;
11203;SDS011;5659;49.408;11.116;2023-08-06T02:12:07;6.00;;;4.75;;
11203;SDS011;5659;49.408;11.116;2023-08-06T02:14:33;7.53;;;5.57;;
11203;SDS011;5659;49.408;11.116;2023-08-06T02:16:59;8.95;;;5.40;;
11203;SDS011;5659;49.408;11.116;2023-08-06T02:19:25;9.38;;;5.72;;
11203;SDS011;5659;49.408;11.116;2023-08-06T02:21:51;8.43;;;5.25;;
11203;SDS011;5659;49.408;11.116;2023-08-06T02:24:17;8.02;;;5.80;;
11203;SDS011;5659;49.408;11.116;2023-08-06T02:26:43;10.73;;;5.65;;
11203;SDS011;5659;49.408;11.116;2023-08-06T02:29:09;8.73;;;6.38;;
11203;SDS011;5659;49.408;11.116;2023-08-06T02:31:35;12.55;;;5.22;;
11203;SDS011;5659;49.408;11.116;2023-08-06T02:34:01;6.78;;;5.28;;
11203;SDS011;5659;49.408;11.116;2023-08-06T02:36:27;7.32;;;5.75;;
11203;SDS011;5659;49.408;11.116;2023-08-06T02:38:54;8.60;;;5.53;;
11203;SDS011;5659;49.408;11.116;2023-08-06T02:41:20;10.88;;;7.30;;
11203;SDS011;5659;49.408;11.116;2023-08-06T02:43:46;11.27;;;7.30;;
11203;SDS011;5659;49.408;11.116;2023-08-06T02:46:12;11.13;;;7.80;;
11203;SDS011;5659;49.408;11.116;2023-08-06T02:48:38;9.00;;;6.22;;
11203;SDS011;5659;49.408;11.116;2023-08-06T02:51:04;9.02;;;6.10;;
11203;SDS011;5659;49.408;11.116;2023-08-06T02:53:30;6.03;;;5.43;;
11203;SDS011;5659;49.408;11.116;2023-08-06T02:55:56;11.13;;;5.63;;
11203;SDS011;5659;49.408;11.116;2023-08-06T02:58:23;10.43;;;6.22;;
11203;SDS011;5659;49.408;11.116;2023-08-06T03:01:00;10.20;;;5.78;;
11203;SDS011;5659;49.408;11.116;2023-08-06T03:03:27;6.55;;;5.88;;
11203;SDS011;5659;49.408;11.116;2023-08-06T03:05:53;6.20;;;5.40;;
11203;SDS011;5659;49.408;11.116;2023-08-06T03:08:19;5.35;;;4.80;;
11203;SDS011;5659;49.408;11.116;2023-08-06T03:10:49;11.05;;;5.40;;
11203;SDS011;5659;49.408;11.116;2023-08-06T03:13:16;7.13;;;4.97;;
11203;SDS011;5659;49.408;11.116;2023-08-06T03:15:42;9.10;;;4.68;;
11203;SDS011;5659;49.408;11.116;2023-08-06T03:18:08;5.00;;;4.50;;
11203;SDS011;5659;49.408;11.116;2023-08-06T03:20:34;8.73;;;4.35;;
11203;SDS011;5659;49.408;11.116;2023-08-06T03:23:00;9.85;;;4.88;;
11203;SDS011;5659;49.408;11.116;2023-08-06T03:25:25;5.70;;;4.60;;
11203;SDS011;5659;49.408;11.116;2023-08-06T03:27:51;7.03;;;4.55;;
11203;SDS011;5659;49.408;11.116;2023-08-06T03:30:17;6.20;;;4.60;;
11203;SDS011;5659;49.408;11.116;2023-08-06T03:32:43;5.93;;;4.40;;
11203;SDS011;5659;49.408;11.116;2023-08-06T03:35:09;6.80;;;4.13;;
11203;SDS011;5659;49.408;11.116;2023-08-06T03:37:35;5.05;;;4.28;;
11203;SDS011;5659;49.408;11.116;2023-08-06T03:40:01;4.93;;;4.35;;
11203;SDS011;5659;49.408;11.116;2023-08-06T03:42:28;8.77;;;4.75;;
11203;SDS011;5659;49.408;11.116;2023-08-06T03:44:54;9.63;;;4.20;;
11203;SDS011;5659;49.408;11.116;2023-08-06T03:47:20;5.10;;;4.60;;
11203;SDS011;5659;49.408;11.116;2023-08-06T03:49:45;5.50;;;4.30;;
11203;SDS011;5659;49.408;11.116;2023-08-06T03:52:11;6.25;;;4.45;;
11203;SDS011;5659;49.408;11.116;2023-08-06T03:54:37;5.15;;;4.65;;
11203;SDS011;5659;49.408;11.116;2023-08-06T03:57:04;5.43;;;4.85;;
11203;SDS011;5659;49.408;11.116;2023-08-06T03:59:30;9.32;;;5.40;;
11203;SDS011;5659;49.408;11.116;2023-08-06T04:01:56;6.43;;;4.55;;
11203;SDS011;5659;49.408;11.116;2023-08-06T04:04:22;6.72;;;5.03;;
11203;SDS011;5659;49.408;11.116;2023-08-06T04:06:48;7.27;;;5.13;;
11203;SDS011;5659;49.408;11.116;2023-08-06T04:09:14;11.15;;;5.20;;
11203;SDS011;5659;49.408;11.116;2023-08-06T04:11:40;6.80;;;5.18;;
11203;SDS011;5659;49.408;11.116;2023-08-06T04:14:06;5.78;;;5.03;;
11203;SDS011;5659;49.408;11.116;2023-08-06T04:16:32;10.18;;;5.55;;
11203;SDS011;5659;49.408;11.116;2023-08-06T04:18:57;7.03;;;5.22;;
11203;SDS011;5659;49.408;11.116;2023-08-06T04:21:23;10.25;;;5.47;;
11203;SDS011;5659;49.408;11.116;2023-08-06T04:23:50;9.15;;;5.65;;
11203;SDS011;5659;49.408;11.116;2023-08-06T04:26:15;7.60;;;5.70;;
11203;SDS011;5659;49.408;11.116;2023-08-06T04:28:41;6.35;;;5.75;;
11203;SDS011;5659;49.408;11.116;2023-08-06T04:31:07;7.63;;;5.47;;
11203;SDS011;5659;49.408;11.116;2023-08-06T04:33:33;6.72;;;5.30;;
11203;SDS011;5659;49.408;11.116;2023-08-06T04:35:59;8.05;;;5.10;;
11203;SDS011;5659;49.408;11.116;2023-08-06T04:38:25;9.70;;;5.15;;
11203;SDS011;5659;49.408;11.116;2023-08-06T04:40:52;6.75;;;5.22;;
11203;SDS011;5659;49.408;11.116;2023-08-06T04:43:18;6.97;;;5.43;;
11203;SDS011;5659;49.408;11.116;2023-08-06T04:45:47;7.03;;;5.22;;
11203;SDS011;5659;49.408;11.116;2023-08-06T04:48:13;11.68;;;6.63;;
11203;SDS011;5659;49.408;11.116;2023-08-06T04:50:43;8.75;;;7.38;;
11203;SDS011;5659;49.408;11.116;2023-08-06T04:53:09;7.55;;;6.70;;
11203;SDS011;5659;49.408;11.116;2023-08-06T04:55:35;8.18;;;6.95;;
11203;SDS011;5659;49.408;11.116;2023-08-06T04:58:01;11.43;;;7.60;;
11203;SDS011;5659;49.408;11.116;2023-08-06T05:00:27;13.50;;;7.25;;
11203;SDS011;5659;49.408;11.116;2023-08-06T05:02:53;10.10;;;7.50;;
11203;SDS011;5659;49.408;11.116;2023-08-06T05:05:19;9.85;;;7.65;;
11203;SDS011;5659;49.408;11.116;2023-08-06T05:07:48;8.55;;;7.38;;
11203;SDS011;5659;49.408;11.116;2023-08-06T05:10:14;8.50;;;7.22;;
11203;SDS011;5659;49.408;11.116;2023-08-06T05:12:40;7.65;;;6.45;;
11203;SDS011;5659;49.408;11.116;2023-08-06T05:15:06;8.32;;;6.85;;
11203;SDS011;5659;49.408;11.116;2023-08-06T05:17:33;8.82;;;6.50;;
11203;SDS011;5659;49.408;11.116;2023-08-06T05:19:59;10.45;;;6.35;;
11203;SDS011;5659;49.408;11.116;2023-08-06T05:22:25;8.07;;;6.50;;
11203;SDS011;5659;49.408;11.116;2023-08-06T05:24:51;6.90;;;6.20;;
11203;SDS011;5659;49.408;11.116;2023-08-06T05:27:17;9.57;;;6.47;;
11203;SDS011;5659;49.408;11.116;2023-08-06T05:29:46;7.63;;;6.20;;
11203;SDS011;5659;49.408;11.116;2023-08-06T05:32:12;6.10;;;5.28;;
11203;SDS011;5659;49.408;11.116;2023-08-06T05:34:37;7.07;;;5.85;;
11203;SDS011;5659;49.408;11.116;2023-08-06T05:37:04;6.30;;;5.70;;
11203;SDS011;5659;49.408;11.116;2023-08-06T05:39:30;6.68;;;5.82;;
11203;SDS011;5659;49.408;11.116;2023-08-06T05:41:56;6.13;;;5.15;;
11203;SDS011;5659;49.408;11.116;2023-08-06T05:44:23;7.65;;;5.50;;
11203;SDS011;5659;49.408;11.116;2023-08-06T05:46:49;5.70;;;5.18;;
11203;SDS011;5659;49.408;11.116;2023-08-06T05:49:15;8.48;;;5.05;;
11203;SDS011;5659;49.408;11.116;2023-08-06T05:51:41;7.50;;;5.32;;
11203;SDS011;5659;49.408;11.116;2023-08-06T05:54:07;6.68;;;5.13;;
11203;SDS011;5659;49.408;11.116;2023-08-06T05:56:33;6.05;;;5.45;;
11203;SDS011;5659;49.408;11.116;2023-08-06T05:58:59;8.00;;;6.13;;
11203;SDS011;5659;49.408;11.116;2023-08-06T06:01:25;6.07;;;5.47;;
11203;SDS011;5659;49.408;11.116;2023-08-06T06:03:51;6.85;;;5.45;;
11203;SDS011;5659;49.408;11.116;2023-08-06T06:06:17;7.07;;;5.30;;
11203;SDS011;5659;49.408;11.116;2023-08-06T06:08:45;7.80;;;5.70;;
11203;SDS011;5659;49.408;11.116;2023-08-06T06:11:11;8.52;;;6.22;;
11203;SDS011;5659;49.408;11.116;2023-08-06T06:13:37;9.95;;;6.47;;
11203;SDS011;5659;49.408;11.116;2023-08-06T06:16:03;7.68;;;6.50;;
11203;SDS011;5659;49.408;11.116;2023-08-06T06:18:30;9.73;;;6.95;;
11203;SDS011;5659;49.408;11.116;2023-08-06T06:20:56;7.85;;;6.45;;
11203;SDS011;5659;49.408;11.116;2023-08-06T06:23:22;7.72;;;6.63;;
11203;SDS011;5659;49.408;11.116;2023-08-06T06:25:48;6.13;;;5.45;;
11203;SDS011;5659;49.408;11.116;2023-08-06T06:28:16;8.43;;;5.40;;
11203;SDS011;5659;49.408;11.116;2023-08-06T06:30:42;9.43;;;5.78;;
11203;SDS011;5659;49.408;11.116;2023-08-06T06:33:08;7.45;;;4.97;;
11203;SDS011;5659;49.408;11.116;2023-08-06T06:35:34;6.80;;;5.00;;
11203;SDS011;5659;49.408;11.116;2023-08-06T06:38:00;6.00;;;5.18;;
11203;SDS011;5659;49.408;11.116;2023-08-06T06:40:27;5.07;;;4.10;;
11203;SDS011;5659;49.408;11.116;2023-08-06T06:42:53;7.93;;;4.57;;
11203;SDS011;5659;49.408;11.116;2023-08-06T06:45:19;8.00;;;5.03;;
11203;SDS011;5659;49.408;11.116;2023-08-06T06:47:45;10.23;;;4.55;;
11203;SDS011;5659;49.408;11.116;2023-08-06T06:50:11;5.88;;;4.97;;
11203;SDS011;5659;49.408;11.116;2023-08-06T06:52:37;11.23;;;5.70;;
11203;SDS011;5659;49.408;11.116;2023-08-06T06:55:03;6.47;;;4.93;;
11203;SDS011;5659;49.408;11.116;2023-08-06T06:57:29;6.10;;;5.50;;
11203;SDS011;5659;49.408;11.116;2023-08-06T06:59:55;6.28;;;5.40;;
11203;SDS011;5659;49.408;11.116;2023-08-06T07:02:21;8.45;;;5.10;;
11203;SDS011;5659;49.408;11.116;2023-08-06T07:04:47;9.07;;;4.97;;
11203;SDS011;5659;49.408;11.116;2023-08-06T07:07:13;5.93;;;4.75;;
11203;SDS011;5659;49.408;11.116;2023-08-06T07:09:39;6.22;;;4.50;;
11203;SDS011;5659;49.408;11.116;2023-08-06T07:12:05;6.53;;;4.68;;
11203;SDS011;5659;49.408;11.116;2023-08-06T07:14:31;5.00;;;4.53;;
11203;SDS011;5659;49.408;11.116;2023-08-06T07:16:57;7.80;;;4.43;;
11203;SDS011;5659;49.408;11.116;2023-08-06T07:19:23;8.82;;;4.63;;
11203;SDS011;5659;49.408;11.116;2023-08-06T07:21:49;5.53;;;4.10;;
11203;SDS011;5659;49.408;11.116;2023-08-06T07:24:15;5.07;;;4.43;;
11203;SDS011;5659;49.408;11.116;2023-08-06T07:26:41;7.25;;;4.63;;
11203;SDS011;5659;49.408;11.116;2023-08-06T07:29:07;7.32;;;4.00;;
11203;SDS011;5659;49.408;11.116;2023-08-06T07:31:33;5.60;;;4.05;;
11203;SDS011;5659;49.408;11.116;2023-08-06T07:33:59;5.88;;;4.10;;
11203;SDS011;5659;49.408;11.116;2023-08-06T07:36:25;7.18;;;4.00;;
11203;SDS011;5659;49.408;11.116;2023-08-06T07:38:51;5.43;;;3.50;;
11203;SDS011;5659;49.408;11.116;2023-08-06T07:41:21;5.72;;;3.88;;
11203;SDS011;5659;49.408;11.116;2023-08-06T07:43:47;5.13;;;3.85;;
11203;SDS011;5659;49.408;11.116;2023-08-06T07:46:13;5.60;;;3.58;;
11203;SDS011;5659;49.408;11.116;2023-08-06T07:48:38;5.75;;;3.30;;
11203;SDS011;5659;49.408;11.116;2023-08-06T07:51:05;4.60;;;3.40;;
11203;SDS011;5659;49.408;11.116;2023-08-06T07:53:31;4.30;;;3.20;;
11203;SDS011;5659;49.408;11.116;2023-08-06T07:55:57;5.25;;;3.42;;
11203;SDS011;5659;49.408;11.116;2023-08-06T07:58:24;4.28;;;3.17;;
11203;SDS011;5659;49.408;11.116;2023-08-06T08:00:50;4.15;;;3.28;;
11203;SDS011;5659;49.408;11.116;2023-08-06T08:03:16;5.15;;;3.50;;
11203;SDS011;5659;49.408;11.116;2023-08-06T08:05:42;5.05;;;3.42;;
11203;SDS011;5659;49.408;11.116;2023-08-06T08:08:09;4.47;;;3.30;;
11203;SDS011;5659;49.408;11.116;2023-08-06T08:10:35;3.97;;;2.97;;
11203;SDS011;5659;49.408;11.116;2023-08-06T08:13:02;8.63;;;3.05;;
11203;SDS011;5659;49.408;11.116;2023-08-06T08:15:29;6.55;;;2.90;;
11203;SDS011;5659;49.408;11.116;2023-08-06T08:17:55;3.33;;;2.42;;
11203;SDS011;5659;49.408;11.116;2023-08-06T08:20:21;3.75;;;2.70;;
11203;SDS011;5659;49.408;11.116;2023-08-06T08:22:47;4.13;;;2.42;;
11203;SDS011;5659;49.408;11.116;2023-08-06T08:25:13;4.03;;;2.38;;
11203;SDS011;5659;49.408;11.116;2023-08-06T08:27:39;5.20;;;2.28;;
11203;SDS011;5659;49.408;11.116;2023-08-06T08:30:06;7.15;;;2.47;;
11203;SDS011;5659;49.408;11.116;2023-08-06T08:32:32;7.40;;;2.08;;
11203;SDS011;5659;49.408;11.116;2023-08-06T08:34:58;4.07;;;1.50;;
11203;SDS011;5659;49.408;11.116;2023-08-06T08:37:24;1.98;;;1.38;;
11203;SDS011;5659;49.408;11.116;2023-08-06T08:39:50;1.98;;;1.52;;
11203;SDS011;5659;49.408;11.116;2023-08-06T08:42:17;2.05;;;1.42;;
11203;SDS011;5659;49.408;11.116;2023-08-06T08:44:43;3.88;;;1.42;;
11203;SDS011;5659;49.408;11.116;2023-08-06T08:47:09;1.58;;;1.13;;
11203;SDS011;5659;49.408;11.116;2023-08-06T08:49:36;1.38;;;1.25;;
11203;SDS011;5659;49.408;11.116;2023-08-06T08:52:03;1.15;;;1.05;;
11203;SDS011;5659;49.408;11.116;2023-08-06T08:54:34;1.48;;;1.00;;
11203;SDS011;5659;49.408;11.116;2023-08-06T08:57:00;3.17;;;1.10;;
11203;SDS011;5659;49.408;11.116;2023-08-06T08:59:27;0.82;;;0.75;;
11203;SDS011;5659;49.408;11.116;2023-08-06T09:01:53;1.02;;;0.85;;
11203;SDS011;5659;49.408;11.116;2023-08-06T09:04:20;2.25;;;0.90;;
11203;SDS011;5659;49.408;11.116;2023-08-06T09:06:46;2.58;;;0.82;;
11203;SDS011;5659;49.408;11.116;2023-08-06T09:09:13;3.42;;;1.10;;
11203;SDS011;5659;49.408;11.116;2023-08-06T09:11:43;1.83;;;1.30;;
11203;SDS011;5659;49.408;11.116;2023-08-06T09:14:10;1.67;;;0.90;;
11203;SDS011;5659;49.408;11.116;2023-08-06T09:16:36;1.83;;;0.90;;
11203;SDS011;5659;49.408;11.116;2023-08-06T09:19:12;1.20;;;0.80;;
11203;SDS011;5659;49.408;11.116;2023-08-06T09:21:40;1.75;;;0.70;;
11203;SDS011;5659;49.408;11.116;2023-08-06T09:24:10;0.60;;;0.60;;
11203;SDS011;5659;49.408;11.116;2023-08-06T09:26:37;1.52;;;0.80;;
11203;SDS011;5659;49.408;11.116;2023-08-06T09:29:06;1.00;;;0.60;;
11203;SDS011;5659;49.408;11.116;2023-08-06T09:31:42;0.90;;;0.70;;
11203;SDS011;5659;49.408;11.116;2023-08-06T09:34:14;0.65;;;0.60;;
11203;SDS011;5659;49.408;11.116;2023-08-06T09:36:48;3.00;;;0.82;;
11203;SDS011;5659;49.408;11.116;2023-08-06T09:39:16;0.65;;;0.60;;
11203;SDS011;5659;49.408;11.116;2023-08-06T09:41:42;0.80;;;0.50;;
11203;SDS011;5659;49.408;11.116;2023-08-06T09:44:15;0.50;;;0.50;;
11203;SDS011;5659;49.408;11.116;2023-08-06T09:46:43;0.60;;;0.60;;
11203;SDS011;5659;49.408;11.116;2023-08-06T09:49:09;0.60;;;0.60;;
11203;SDS011;5659;49.408;11.116;2023-08-06T09:51:35;1.35;;;0.75;;
11203;SDS011;5659;49.408;11.116;2023-08-06T09:54:04;0.65;;;0.50;;
11203;SDS011;5659;49.408;11.116;2023-08-06T09:56:31;0.60;;;0.60;;
11203;SDS011;5659;49.408;11.116;2023-08-06T09:59:02;0.80;;;0.80;;
11203;SDS011;5659;49.408;11.116;2023-08-06T10:01:29;1.75;;;0.95;;
11203;SDS011;5659;49.408;11.116;2023-08-06T10:03:56;0.82;;;0.70;;
11203;SDS011;5659;49.408;11.116;2023-08-06T10:06:23;0.82;;;0.50;;
11203;SDS011;5659;49.408;11.116;2023-08-06T10:08:49;0.50;;;0.50;;
11203;SDS011;5659;49.408;11.116;2023-08-06T10:11:15;2.35;;;0.70;;
11203;SDS011;5659;49.408;11.116;2023-08-06T10:13:42;1.58;;;0.60;;
11203;SDS011;5659;49.408;11.116;2023-08-06T10:16:09;1.13;;;0.98;;
11203;SDS011;5659;49.408;11.116;2023-08-06T10:18:36;3.45;;;0.60;;
11203;SDS011;5659;49.408;11.116;2023-08-06T10:21:03;0.90;;;0.88;;
11203;SDS011;5659;49.408;11.116;2023-08-06T10:23:32;0.85;;;0.70;;
11203;SDS011;5659;49.408;11.116;2023-08-06T10:25:59;0.70;;;0.70;;
11203;SDS011;5659;49.408;11.116;2023-08-06T10:28:33;1.42;;;0.65;;
11203;SDS011;5659;49.408;11.116;2023-08-06T10:31:00;0.50;;;0.50;;
11203;SDS011;5659;49.408;11.116;2023-08-06T10:33:30;0.60;;;0.60;;
11203;SDS011;5659;49.408;11.116;2023-08-06T10:36:06;1.20;;;0.68;;
11203;SDS011;5659;49.408;11.116;2023-08-06T10:38:34;0.75;;;0.60;;
11203;SDS011;5659;49.408;11.116;2023-08-06T10:41:02;0.50;;;0.50;;
11203;SDS011;5659;49.408;11.116;2023-08-06T10:43:33;0.80;;;0.60;;
11203;SDS011;5659;49.408;11.116;2023-08-06T10:46:01;0.68;;;0.68;;
11203;SDS011;5659;49.408;11.116;2023-08-06T10:48:29;0.70;;;0.70;;
11203;SDS011;5659;49.408;11.116;2023-08-06T10:50:56;0.40;;;0.40;;
11203;SDS011;5659;49.408;11.116;2023-08-06T10:53:22;1.00;;;0.63;;
11203;SDS011;5659;49.408;11.116;2023-08-06T10:55:48;0.50;;;0.50;;
11203;SDS011;5659;49.408;11.116;2023-08-06T10:58:15;0.50;;;0.50;;
11203;SDS011;5659;49.408;11.116;2023-08-06T11:00:41;1.85;;;0.50;;
11203;SDS011;5659;49.408;11.116;2023-08-06T11:03:07;0.70;;;0.52;;
11203;SDS011;5659;49.408;11.116;2023-08-06T11:05:34;0.50;;;0.50;;
11203;SDS011;5659;49.408;11.116;2023-08-06T11:08:01;0.60;;;0.60;;
11203;SDS011;5659;49.408;11.116;2023-08-06T11:10:27;0.95;;;0.70;;
11203;SDS011;5659;49.408;11.116;2023-08-06T11:12:53;1.85;;;0.90;;
11203;SDS011;5659;49.408;11.116;2023-08-06T11:15:22;0.65;;;0.50;;
11203;SDS011;5659;49.408;11.116;2023-08-06T11:17:48;0.30;;;0.30;;
11203;SDS011;5659;49.408;11.116;2023-08-06T11:20:15;0.40;;;0.40;;
11203;SDS011;5659;49.408;11.116;2023-08-06T11:22:42;0.20;;;0.20;;
11203;SDS011;5659;49.408;11.116;2023-08-06T11:25:08;0.75;;;0.47;;
11203;SDS011;5659;49.408;11.116;2023-08-06T11:27:34;0.28;;;0.28;;
11203;SDS011;5659;49.408;11.116;2023-08-06T11:30:00;1.15;;;0.40;;
11203;SDS011;5659;49.408;11.116;2023-08-06T11:32:26;0.40;;;0.40;;
11203;SDS011;5659;49.408;11.116;2023-08-06T11:34:53;0.40;;;0.40;;
11203;SDS011;5659;49.408;11.116;2023-08-06T11:37:23;0.30;;;0.30;;
11203;SDS011;5659;49.408;11.116;2023-08-06T11:39:50;0.30;;;0.30;;
11203;SDS011;5659;49.408;11.116;2023-08-06T11:42:16;0.80;;;0.40;;
11203;SDS011;5659;49.408;11.116;2023-08-06T11:44:42;0.32;;;0.32;;
11203;SDS011;5659;49.408;11.116;2023-08-06T11:47:13;0.65;;;0.40;;
11203;SDS011;5659;49.408;11.116;2023-08-06T11:52:10;1.95;;;0.60;;
11203;SDS011;5659;49.408;11.116;2023-08-06T11:54:36;0.60;;;0.60;;
11203;SDS011;5659;49.408;11.116;2023-08-06T11:57:03;0.73;;;0.70;;
11203;SDS011;5659;49.408;11.116;2023-08-06T11:59:30;0.40;;;0.40;;
11203;SDS011;5659;49.408;11.116;2023-08-06T12:01:56;0.47;;;0.40;;
11203;SDS011;5659;49.408;11.116;2023-08-06T12:04:22;0.40;;;0.40;;
11203;SDS011;5659;49.408;11.116;2023-08-06T12:06:48;0.40;;;0.40;;
11203;SDS011;5659;49.408;11.116;2023-08-06T12:09:14;0.55;;;0.40;;
11203;SDS011;5659;49.408;11.116;2023-08-06T12:11:41;0.38;;;0.38;;
11203;SDS011;5659;49.408;11.116;2023-08-06T12:14:07;0.47;;;0.47;;
11203;SDS011;5659;49.408;11.116;2023-08-06T12:16:33;3.42;;;0.40;;
11203;SDS011;5659;49.408;11.116;2023-08-06T12:18:59;4.15;;;0.47;;
11203;SDS011;5659;49.408;11.116;2023-08-06T12:21:25;0.60;;;0.50;;
11203;SDS011;5659;49.408;11.116;2023-08-06T12:23:51;0.68;;;0.43;;
11203;SDS011;5659;49.408;11.116;2023-08-06T12:26:17;1.05;;;0.50;;
11203;SDS011;5659;49.408;11.116;2023-08-06T12:28:42;0.85;;;0.60;;
11203;SDS011;5659;49.408;11.116;2023-08-06T12:31:08;0.77;;;0.45;;
11203;SDS011;5659;49.408;11.116;2023-08-06T12:33:34;1.40;;;0.63;;
11203;SDS011;5659;49.408;11.116;2023-08-06T12:36:00;0.40;;;0.40;;
11203;SDS011;5659;49.408;11.116;2023-08-06T12:38:26;0.32;;;0.32;;
11203;SDS011;5659;49.408;11.116;2023-08-06T12:40:52;0.40;;;0.40;;
11203;SDS011;5659;49.408;11.116;2023-08-06T12:43:18;0.80;;;0.50;;
11203;SDS011;5659;49.408;11.116;2023-08-06T12:45:44;0.80;;;0.40;;
11203;SDS011;5659;49.408;11.116;2023-08-06T12:48:11;0.38;;;0.38;;
11203;SDS011;5659;49.408;11.116;2023-08-06T12:50:37;1.55;;;0.40;;
11203;SDS011;5659;49.408;11.116;2023-08-06T12:53:03;0.30;;;0.30;;
11203;SDS011;5659;49.408;11.116;2023-08-06T12:55:30;0.20;;;0.20;;
11203;SDS011;5659;49.408;11.116;2023-08-06T12:57:56;3.80;;;0.50;;
11203;SDS011;5659;49.408;11.116;2023-08-06T13:00:22;0.88;;;0.32;;
11203;SDS011;5659;49.408;11.116;2023-08-06T13:02:48;0.52;;;0.45;;
11203;SDS011;5659;49.408;11.116;2023-08-06T13:05:14;0.57;;;0.25;;
11203;SDS011;5659;49.408;11.116;2023-08-06T13:07:40;0.38;;;0.38;;
11203;SDS011;5659;49.408;11.116;2023-08-06T13:10:06;0.80;;;0.57;;
11203;SDS011;5659;49.408;11.116;2023-08-06T13:12:32;1.25;;;0.32;;
11203;SDS011;5659;49.408;11.116;2023-08-06T13:14:58;0.40;;;0.40;;
11203;SDS011;5659;49.408;11.116;2023-08-06T13:17:24;0.88;;;0.40;;
11203;SDS011;5659;49.408;11.116;2023-08-06T13:19:51;0.45;;;0.45;;
11203;SDS011;5659;49.408;11.116;2023-08-06T13:22:17;1.75;;;0.50;;
11203;SDS011;5659;49.408;11.116;2023-08-06T13:24:43;0.60;;;0.50;;
11203;SDS011;5659;49.408;11.116;2023-08-06T13:27:09;0.30;;;0.30;;
11203;SDS011;5659;49.408;11.116;2023-08-06T13:29:35;0.52;;;0.32;;
11203;SDS011;5659;49.408;11.116;2023-08-06T13:32:01;0.35;;;0.35;;
11203;SDS011;5659;49.408;11.116;2023-08-06T13:34:27;0.35;;;0.35;;
11203;SDS011;5659;49.408;11.116;2023-08-06T13:36:53;1.33;;;0.50;;
11203;SDS011;5659;49.408;11.116;2023-08-06T13:39:19;0.40;;;0.40;;
11203;SDS011;5659;49.408;11.116;2023-08-06T13:41:45;0.50;;;0.50;;
11203;SDS011;5659;49.408;11.116;2023-08-06T13:44:11;0.40;;;0.40;;
11203;SDS011;5659;49.408;11.116;2023-08-06T13:46:39;1.63;;;0.45;;
11203;SDS011;5659;49.408;11.116;2023-08-06T13:49:05;0.40;;;0.40;;
11203;SDS011;5659;49.408;11.116;2023-08-06T13:51:31;0.68;;;0.50;;
11203;SDS011;5659;49.408;11.116;2023-08-06T13:53:59;0.40;;;0.40;;
11203;SDS011;5659;49.408;11.116;2023-08-06T13:56:24;0.82;;;0.45;;
11203;SDS011;5659;49.408;11.116;2023-08-06T13:58:50;0.50;;;0.50;;
11203;SDS011;5659;49.408;11.116;2023-08-06T14:01:17;1.30;;;0.50;;
11203;SDS011;5659;49.408;11.116;2023-08-06T14:03:44;0.70;;;0.60;;
11203;SDS011;5659;49.408;11.116;2023-08-06T14:08:38;0.50;;;0.50;;
11203;SDS011;5659;49.408;11.116;2023-08-06T14:11:05;0.75;;;0.52;;
11203;SDS011;5659;49.408;11.116;2023-08-06T14:13:31;0.75;;;0.60;;
11203;SDS011;5659;49.408;11.116;2023-08-06T14:15:57;1.42;;;0.70;;
11203;SDS011;5659;49.408;11.116;2023-08-06T14:18:23;1.77;;;0.70;;
11203;SDS011;5659;49.408;11.116;2023-08-06T14:20:49;0.60;;;0.60;;
11203;SDS011;5659;49.408;11.116;2023-08-06T14:23:15;0.50;;;0.50;;
11203;SDS011;5659;49.408;11.116;2023-08-06T14:25:41;0.60;;;0.60;;
11203;SDS011;5659;49.408;11.116;2023-08-06T14:28:07;0.70;;;0.70;;
11203;SDS011;5659;49.408;11.116;2023-08-06T14:30:34;0.70;;;0.70;;
11203;SDS011;5659;49.408;11.116;2023-08-06T14:33:00;0.70;;;0.70;;
11203;SDS011;5659;49.408;11.116;2023-08-06T14:35:26;0.60;;;0.60;;
11203;SDS011;5659;49.408;11.116;2023-08-06T14:37:52;0.80;;;0.80;;
11203;SDS011;5659;49.408;11.116;2023-08-06T14:40:18;1.67;;;0.70;;
11203;SDS011;5659;49.408;11.116;2023-08-06T14:42:44;0.50;;;0.50;;
11203;SDS011;5659;49.408;11.116;2023-08-06T14:45:10;2.15;;;0.70;;
11203;SDS011;5659;49.408;11.116;2023-08-06T14:47:36;0.57;;;0.57;;
11203;SDS011;5659;49.408;11.116;2023-08-06T14:50:02;0.77;;;0.77;;
11203;SDS011;5659;49.408;11.116;2023-08-06T14:52:28;0.70;;;0.70;;
11203;SDS011;5659;49.408;11.116;2023-08-06T14:54:54;1.75;;;0.90;;
11203;SDS011;5659;49.408;11.116;2023-08-06T14:57:21;0.85;;;0.80;;